หน้าหลัก
METAR-TAF:

ท่าอากาศยาน :

ซิดนีย์, ออสเตรเลีย

ท่าอากาศยานนานาชาติคิงส์ฟอร์ดสมิธ

ละติจูด: 33-57S, ลองจิจูด: 151-11E, ความสูง: 6 ม.

การสังเกตสภาพอากาศปัจจุบัน

รายงานได้ทำขึ้นเมื่อ 24 นาทีที่แล้ว ณ เวลา 09:30 UTC
ลม 11 นอตจากตะวันตก
อุณหภูมิ 12°C
ความชื้น 50%
ความกดอากาศ 1020 hPa
ทัศนวิสัย 10 กม. หรือมากกว่า
ไม่มีเมฆต่ำกว่า 1,500 ม. และไม่มีเมฆคิวมูโลนิมบัส

METAR: YSSY 010930Z 26011KT CAVOK 12/02 Q1020 NOSIG

เวลา: 19:54 (09:54 UTC)

การพยากรณ์

รายงานได้ทำขึ้นเมื่อ 4 ชั่วโมงและ 47 นาทีที่แล้ว ณ เวลา 05:07 UTC
การพยากรณ์มีผลตั้งแต่วันที่ 01 ณ เวลา 06 UTC จนถึงวันที่ 02 ณ เวลา 12 UTC
ลม 15 นอตจากตะวันตกเฉียงใต้
ทัศนวิสัย 10 กม. หรือมากกว่า
ไม่มีเมฆต่ำกว่า 1,500 ม. และไม่มีเมฆคิวมูโลนิมบัส
จาก 01 ณ เวลา 0900 UTC
ลม 12 นอตจากตะวันตก
ทัศนวิสัย 10 กม. หรือมากกว่า
ไม่มีเมฆต่ำกว่า 1,500 ม. และไม่มีเมฆคิวมูโลนิมบัส

TAF: YSSY 010507Z 0106/0212 23015KT CAVOK FM010900 26012KT CAVOK

METAR-TAF

สังเกตการณ์สภาพอากาศและพยากรณ์อากาศของสนามบินมากกว่า 4000 แห่ง (รายงาน METAR และ TAF).

สถานีที่ดูได้จะแสดงไว้ด้วยจุดสีเหลืองและสีแดงบนแผนที่.

เลื่อนเมาส์ไปเหนือจุดเพื่อดูชื่อสถานี.

แล้วคลิกเพื่อดูสังเกตการณ์และการพยากรณ์สภาพอากาศ.

ในการเปลี่ยนแผนที่: คลิกที่ปุ่มสีเขียวที่มีกากบาทสีดำเพื่อซูมเข้า; ที่ปุ่มสีเขียวที่มีขีดเพื่อซูมออก; หรือที่ลูกศรสีเขียวเพื่อไปยังแผนที่ที่อยู่ติดกัน.


METAR-TAF: